KLIC Airport (Limon Muni) Information

FAA: LIC - ICAO: KLIC

KLIC Airport Location

State Colorado
County Lincoln
City Limon
KLIC Airport is 1 miles northeast of Limon, CO.
Latitude 39-16-29.2000N
Longitude 103-39-57.1000W
Elevation 5,374ft

KLIC Airport METARs

METAR KLIC 060555Z AUTO 03005KT 10SM OVC100 21/11 A3011 RMK AO2 SLP097 T02110111 10278 20206 53015
Altimeter 30.11"
Temperature 21.1°C (70.0°F)
Wind 30° at 5KT
Clouds overcast at 10,000ft
Visibility 10.0mi
Time observed: 2022-07-06T05:55:00Z

KLIC Airport Details

Status Operational
Activation November 1950
Ownership Public
Usage Public
Chart WICHITA
ATC on-site No
Beacon schedule sunset-sunrise
Beacon color clear green

KLIC Airport Contacts

Owner TOWN OF LIMON
Owner address TOWN HALL, BOX 9, LIMON, CO 80828
Owner phone 719-775-2346
Manager BRETT COTTRELL
Manager address 915 CR 23, BOX 952, LEADVILLE, CO 80461
Manager phone 719-486-0307

KLIC Airport (Limon Muni) Radio Frequencies

KLIC (Airport) Radio Frequencies

UNICOM N/A
Common traffic advisory frequency (CTAF) 122.9